sensor_id;sensor_type;location;lat;lon;timestamp;P1;durP1;ratioP1;P2;durP2;ratioP2
9759;SDS011;4919;48.792;9.202;2022-09-03T00:01:37;3.17;;;1.70;;
9759;SDS011;4919;48.792;9.202;2022-09-03T00:04:41;4.90;;;1.77;;
9759;SDS011;4919;48.792;9.202;2022-09-03T00:07:27;3.47;;;1.70;;
9759;SDS011;4919;48.792;9.202;2022-09-03T00:10:19;2.47;;;1.53;;
9759;SDS011;4919;48.792;9.202;2022-09-03T00:12:51;4.00;;;2.00;;
9759;SDS011;4919;48.792;9.202;2022-09-03T00:15:22;3.60;;;1.83;;
9759;SDS011;4919;48.792;9.202;2022-09-03T00:17:57;2.03;;;1.67;;
9759;SDS011;4919;48.792;9.202;2022-09-03T00:20:38;2.23;;;1.73;;
9759;SDS011;4919;48.792;9.202;2022-09-03T00:23:09;2.30;;;1.87;;
9759;SDS011;4919;48.792;9.202;2022-09-03T00:25:42;2.90;;;1.90;;
9759;SDS011;4919;48.792;9.202;2022-09-03T00:28:22;2.50;;;1.70;;
9759;SDS011;4919;48.792;9.202;2022-09-03T00:31:01;3.60;;;1.80;;
9759;SDS011;4919;48.792;9.202;2022-09-03T00:33:33;2.20;;;1.70;;
9759;SDS011;4919;48.792;9.202;2022-09-03T00:36:09;4.23;;;1.80;;
9759;SDS011;4919;48.792;9.202;2022-09-03T00:38:37;2.73;;;1.70;;
9759;SDS011;4919;48.792;9.202;2022-09-03T00:58:18;1.97;;;1.60;;
9759;SDS011;4919;48.792;9.202;2022-09-03T01:01:12;3.97;;;1.87;;
9759;SDS011;4919;48.792;9.202;2022-09-03T01:03:46;2.70;;;1.80;;
9759;SDS011;4919;48.792;9.202;2022-09-03T01:06:28;3.67;;;1.70;;
9759;SDS011;4919;48.792;9.202;2022-09-03T01:09:08;2.30;;;1.77;;
9759;SDS011;4919;48.792;9.202;2022-09-03T01:11:52;2.90;;;1.80;;
9759;SDS011;4919;48.792;9.202;2022-09-03T01:28:00;2.77;;;1.80;;
9759;SDS011;4919;48.792;9.202;2022-09-03T01:30:37;3.20;;;1.80;;
9759;SDS011;4919;48.792;9.202;2022-09-03T01:33:18;2.83;;;1.80;;
9759;SDS011;4919;48.792;9.202;2022-09-03T01:47:34;1.87;;;1.50;;
9759;SDS011;4919;48.792;9.202;2022-09-03T01:52:58;1.83;;;1.60;;
9759;SDS011;4919;48.792;9.202;2022-09-03T01:55:53;3.43;;;1.80;;
9759;SDS011;4919;48.792;9.202;2022-09-03T01:58:41;2.40;;;1.70;;
9759;SDS011;4919;48.792;9.202;2022-09-03T02:01:20;3.37;;;1.90;;
9759;SDS011;4919;48.792;9.202;2022-09-03T02:03:59;2.17;;;1.60;;
9759;SDS011;4919;48.792;9.202;2022-09-03T02:06:26;3.63;;;1.70;;
9759;SDS011;4919;48.792;9.202;2022-09-03T02:08:57;2.17;;;1.83;;
9759;SDS011;4919;48.792;9.202;2022-09-03T02:11:23;3.83;;;1.90;;
9759;SDS011;4919;48.792;9.202;2022-09-03T02:13:51;2.53;;;1.80;;
9759;SDS011;4919;48.792;9.202;2022-09-03T02:16:24;3.33;;;1.90;;
9759;SDS011;4919;48.792;9.202;2022-09-03T02:18:57;1.87;;;1.60;;
9759;SDS011;4919;48.792;9.202;2022-09-03T02:21:27;3.50;;;1.70;;
9759;SDS011;4919;48.792;9.202;2022-09-03T02:24:02;2.27;;;1.43;;
9759;SDS011;4919;48.792;9.202;2022-09-03T02:26:31;3.23;;;1.70;;
9759;SDS011;4919;48.792;9.202;2022-09-03T02:28:58;3.00;;;1.80;;
9759;SDS011;4919;48.792;9.202;2022-09-03T02:31:27;2.70;;;1.60;;
9759;SDS011;4919;48.792;9.202;2022-09-03T02:33:55;1.93;;;1.60;;
9759;SDS011;4919;48.792;9.202;2022-09-03T02:36:27;1.63;;;1.53;;
9759;SDS011;4919;48.792;9.202;2022-09-03T02:38:58;3.10;;;1.60;;
9759;SDS011;4919;48.792;9.202;2022-09-03T02:41:25;2.10;;;1.70;;
9759;SDS011;4919;48.792;9.202;2022-09-03T02:46:35;2.17;;;1.60;;
9759;SDS011;4919;48.792;9.202;2022-09-03T02:49:05;4.47;;;1.87;;
9759;SDS011;4919;48.792;9.202;2022-09-03T02:51:34;2.50;;;1.60;;
9759;SDS011;4919;48.792;9.202;2022-09-03T02:54:03;3.70;;;1.70;;
9759;SDS011;4919;48.792;9.202;2022-09-03T02:56:30;2.47;;;1.70;;
9759;SDS011;4919;48.792;9.202;2022-09-03T02:58:57;1.90;;;1.60;;
9759;SDS011;4919;48.792;9.202;2022-09-03T03:01:25;1.73;;;1.50;;
9759;SDS011;4919;48.792;9.202;2022-09-03T03:03:52;2.03;;;1.70;;
9759;SDS011;4919;48.792;9.202;2022-09-03T03:06:19;2.20;;;1.80;;
9759;SDS011;4919;48.792;9.202;2022-09-03T03:08:47;2.63;;;1.63;;
9759;SDS011;4919;48.792;9.202;2022-09-03T03:11:15;2.60;;;1.73;;
9759;SDS011;4919;48.792;9.202;2022-09-03T03:13:44;2.83;;;1.90;;
9759;SDS011;4919;48.792;9.202;2022-09-03T03:16:12;2.60;;;1.67;;
9759;SDS011;4919;48.792;9.202;2022-09-03T03:18:40;1.83;;;1.50;;
9759;SDS011;4919;48.792;9.202;2022-09-03T03:21:08;2.63;;;1.60;;
9759;SDS011;4919;48.792;9.202;2022-09-03T03:23:37;3.63;;;1.87;;
9759;SDS011;4919;48.792;9.202;2022-09-03T03:26:05;2.17;;;1.80;;
9759;SDS011;4919;48.792;9.202;2022-09-03T03:28:33;3.00;;;1.60;;
9759;SDS011;4919;48.792;9.202;2022-09-03T03:31:05;4.30;;;1.67;;
9759;SDS011;4919;48.792;9.202;2022-09-03T03:33:33;2.07;;;1.73;;
9759;SDS011;4919;48.792;9.202;2022-09-03T03:36:06;5.17;;;1.83;;
9759;SDS011;4919;48.792;9.202;2022-09-03T03:38:35;2.67;;;1.70;;
9759;SDS011;4919;48.792;9.202;2022-09-03T03:41:10;1.87;;;1.60;;
9759;SDS011;4919;48.792;9.202;2022-09-03T03:43:42;2.30;;;1.80;;
9759;SDS011;4919;48.792;9.202;2022-09-03T03:46:10;2.77;;;1.70;;
9759;SDS011;4919;48.792;9.202;2022-09-03T03:48:38;2.20;;;1.60;;
9759;SDS011;4919;48.792;9.202;2022-09-03T03:51:06;2.87;;;1.60;;
9759;SDS011;4919;48.792;9.202;2022-09-03T03:53:34;2.40;;;2.10;;
9759;SDS011;4919;48.792;9.202;2022-09-03T03:56:04;3.63;;;2.00;;
9759;SDS011;4919;48.792;9.202;2022-09-03T03:58:32;2.73;;;1.70;;
9759;SDS011;4919;48.792;9.202;2022-09-03T04:01:09;2.10;;;1.80;;
9759;SDS011;4919;48.792;9.202;2022-09-03T04:03:38;3.40;;;1.77;;
9759;SDS011;4919;48.792;9.202;2022-09-03T04:06:05;3.20;;;2.00;;
9759;SDS011;4919;48.792;9.202;2022-09-03T04:08:34;3.50;;;1.80;;
9759;SDS011;4919;48.792;9.202;2022-09-03T04:11:03;3.30;;;1.90;;
9759;SDS011;4919;48.792;9.202;2022-09-03T04:13:32;4.57;;;1.97;;
9759;SDS011;4919;48.792;9.202;2022-09-03T04:18:28;3.13;;;2.00;;
9759;SDS011;4919;48.792;9.202;2022-09-03T04:21:00;2.03;;;1.67;;
9759;SDS011;4919;48.792;9.202;2022-09-03T04:23:32;4.33;;;1.93;;
9759;SDS011;4919;48.792;9.202;2022-09-03T04:26:00;3.57;;;1.83;;
9759;SDS011;4919;48.792;9.202;2022-09-03T04:28:30;5.00;;;2.00;;
9759;SDS011;4919;48.792;9.202;2022-09-03T04:31:01;2.80;;;2.10;;
9759;SDS011;4919;48.792;9.202;2022-09-03T04:33:34;3.60;;;1.87;;
9759;SDS011;4919;48.792;9.202;2022-09-03T04:36:07;3.40;;;2.03;;
9759;SDS011;4919;48.792;9.202;2022-09-03T04:38:37;4.77;;;2.20;;
9759;SDS011;4919;48.792;9.202;2022-09-03T04:41:05;3.30;;;1.90;;
9759;SDS011;4919;48.792;9.202;2022-09-03T04:43:35;3.67;;;2.20;;
9759;SDS011;4919;48.792;9.202;2022-09-03T04:46:03;3.37;;;2.10;;
9759;SDS011;4919;48.792;9.202;2022-09-03T04:48:33;2.37;;;1.87;;
9759;SDS011;4919;48.792;9.202;2022-09-03T04:51:06;2.50;;;1.97;;
9759;SDS011;4919;48.792;9.202;2022-09-03T04:53:39;2.13;;;1.83;;
9759;SDS011;4919;48.792;9.202;2022-09-03T04:56:27;4.43;;;2.10;;
9759;SDS011;4919;48.792;9.202;2022-09-03T04:58:59;3.90;;;2.30;;
9759;SDS011;4919;48.792;9.202;2022-09-03T05:01:31;2.27;;;1.93;;
9759;SDS011;4919;48.792;9.202;2022-09-03T05:04:00;4.20;;;2.23;;
9759;SDS011;4919;48.792;9.202;2022-09-03T05:06:28;4.20;;;2.30;;
9759;SDS011;4919;48.792;9.202;2022-09-03T05:08:56;3.57;;;2.30;;
9759;SDS011;4919;48.792;9.202;2022-09-03T05:11:24;2.77;;;1.90;;
9759;SDS011;4919;48.792;9.202;2022-09-03T05:13:52;3.53;;;2.10;;
9759;SDS011;4919;48.792;9.202;2022-09-03T05:16:21;2.80;;;2.13;;
9759;SDS011;4919;48.792;9.202;2022-09-03T05:18:53;2.50;;;2.10;;
9759;SDS011;4919;48.792;9.202;2022-09-03T05:21:22;3.97;;;2.20;;
9759;SDS011;4919;48.792;9.202;2022-09-03T05:23:49;2.97;;;2.20;;
9759;SDS011;4919;48.792;9.202;2022-09-03T05:26:25;4.70;;;2.20;;
9759;SDS011;4919;48.792;9.202;2022-09-03T05:28:58;2.60;;;2.10;;
9759;SDS011;4919;48.792;9.202;2022-09-03T05:31:27;4.33;;;2.30;;
9759;SDS011;4919;48.792;9.202;2022-09-03T05:33:58;9.07;;;2.67;;
9759;SDS011;4919;48.792;9.202;2022-09-03T05:36:27;3.17;;;2.00;;
9759;SDS011;4919;48.792;9.202;2022-09-03T05:38:56;2.27;;;2.07;;
9759;SDS011;4919;48.792;9.202;2022-09-03T05:41:24;4.30;;;2.10;;
9759;SDS011;4919;48.792;9.202;2022-09-03T05:43:53;4.80;;;2.33;;
9759;SDS011;4919;48.792;9.202;2022-09-03T05:46:28;4.43;;;2.53;;
9759;SDS011;4919;48.792;9.202;2022-09-03T05:49:00;2.43;;;2.20;;
9759;SDS011;4919;48.792;9.202;2022-09-03T05:51:29;4.40;;;2.50;;
9759;SDS011;4919;48.792;9.202;2022-09-03T05:53:57;3.33;;;2.33;;
9759;SDS011;4919;48.792;9.202;2022-09-03T05:56:25;3.47;;;2.30;;
9759;SDS011;4919;48.792;9.202;2022-09-03T05:58:55;3.30;;;2.30;;
9759;SDS011;4919;48.792;9.202;2022-09-03T06:01:28;2.63;;;2.10;;
9759;SDS011;4919;48.792;9.202;2022-09-03T06:06:28;2.80;;;2.13;;
9759;SDS011;4919;48.792;9.202;2022-09-03T06:08:58;5.37;;;2.40;;
9759;SDS011;4919;48.792;9.202;2022-09-03T06:11:28;2.90;;;2.10;;
9759;SDS011;4919;48.792;9.202;2022-09-03T06:13:56;3.53;;;2.40;;
9759;SDS011;4919;48.792;9.202;2022-09-03T06:16:26;3.17;;;2.33;;
9759;SDS011;4919;48.792;9.202;2022-09-03T06:19:00;2.97;;;2.23;;
9759;SDS011;4919;48.792;9.202;2022-09-03T06:21:28;3.30;;;2.37;;
9759;SDS011;4919;48.792;9.202;2022-09-03T06:23:55;5.50;;;2.27;;
9759;SDS011;4919;48.792;9.202;2022-09-03T06:26:25;4.03;;;2.27;;
9759;SDS011;4919;48.792;9.202;2022-09-03T06:28:56;5.20;;;2.40;;
9759;SDS011;4919;48.792;9.202;2022-09-03T06:31:23;2.70;;;2.23;;
9759;SDS011;4919;48.792;9.202;2022-09-03T06:33:51;3.70;;;2.30;;
9759;SDS011;4919;48.792;9.202;2022-09-03T06:36:20;3.60;;;2.30;;
9759;SDS011;4919;48.792;9.202;2022-09-03T06:38:52;3.53;;;2.17;;
9759;SDS011;4919;48.792;9.202;2022-09-03T06:41:21;2.53;;;2.23;;
9759;SDS011;4919;48.792;9.202;2022-09-03T06:44:03;3.37;;;2.23;;
9759;SDS011;4919;48.792;9.202;2022-09-03T06:46:32;5.10;;;2.40;;
9759;SDS011;4919;48.792;9.202;2022-09-03T06:49:01;3.53;;;2.60;;
9759;SDS011;4919;48.792;9.202;2022-09-03T06:51:29;2.90;;;2.40;;
9759;SDS011;4919;48.792;9.202;2022-09-03T06:54:01;2.30;;;2.10;;
9759;SDS011;4919;48.792;9.202;2022-09-03T06:56:31;3.37;;;2.20;;
9759;SDS011;4919;48.792;9.202;2022-09-03T06:59:09;5.00;;;2.40;;
9759;SDS011;4919;48.792;9.202;2022-09-03T07:01:40;3.50;;;2.30;;
9759;SDS011;4919;48.792;9.202;2022-09-03T07:04:11;3.83;;;2.30;;
9759;SDS011;4919;48.792;9.202;2022-09-03T07:06:42;6.30;;;2.20;;
9759;SDS011;4919;48.792;9.202;2022-09-03T07:09:10;3.93;;;2.33;;
9759;SDS011;4919;48.792;9.202;2022-09-03T07:11:38;3.37;;;2.10;;
9759;SDS011;4919;48.792;9.202;2022-09-03T07:14:12;5.10;;;2.30;;
9759;SDS011;4919;48.792;9.202;2022-09-03T07:16:40;2.83;;;2.27;;
9759;SDS011;4919;48.792;9.202;2022-09-03T07:19:08;4.70;;;2.43;;
9759;SDS011;4919;48.792;9.202;2022-09-03T07:21:35;6.50;;;2.50;;
9759;SDS011;4919;48.792;9.202;2022-09-03T07:24:03;4.63;;;2.40;;
9759;SDS011;4919;48.792;9.202;2022-09-03T07:26:32;4.33;;;2.17;;
9759;SDS011;4919;48.792;9.202;2022-09-03T07:29:00;3.33;;;2.10;;
9759;SDS011;4919;48.792;9.202;2022-09-03T07:31:29;2.50;;;2.07;;
9759;SDS011;4919;48.792;9.202;2022-09-03T07:33:59;3.27;;;2.60;;
9759;SDS011;4919;48.792;9.202;2022-09-03T07:36:33;2.80;;;1.90;;
9759;SDS011;4919;48.792;9.202;2022-09-03T07:39:04;3.10;;;1.97;;
9759;SDS011;4919;48.792;9.202;2022-09-03T07:41:31;2.67;;;2.00;;
9759;SDS011;4919;48.792;9.202;2022-09-03T07:43:58;3.17;;;2.00;;
9759;SDS011;4919;48.792;9.202;2022-09-03T07:46:32;3.50;;;2.20;;
9759;SDS011;4919;48.792;9.202;2022-09-03T07:49:02;2.40;;;2.17;;
9759;SDS011;4919;48.792;9.202;2022-09-03T07:51:34;2.77;;;1.90;;
9759;SDS011;4919;48.792;9.202;2022-09-03T07:54:04;4.97;;;2.17;;
9759;SDS011;4919;48.792;9.202;2022-09-03T07:56:35;3.27;;;2.07;;
9759;SDS011;4919;48.792;9.202;2022-09-03T07:59:02;4.13;;;2.43;;
9759;SDS011;4919;48.792;9.202;2022-09-03T08:01:31;3.03;;;2.17;;
9759;SDS011;4919;48.792;9.202;2022-09-03T08:03:59;4.77;;;2.00;;
9759;SDS011;4919;48.792;9.202;2022-09-03T08:06:28;2.77;;;2.20;;
9759;SDS011;4919;48.792;9.202;2022-09-03T08:08:59;4.43;;;1.97;;
9759;SDS011;4919;48.792;9.202;2022-09-03T08:11:31;3.43;;;2.10;;
9759;SDS011;4919;48.792;9.202;2022-09-03T08:14:05;2.77;;;1.83;;
9759;SDS011;4919;48.792;9.202;2022-09-03T08:16:35;4.07;;;1.90;;
9759;SDS011;4919;48.792;9.202;2022-09-03T08:19:05;4.70;;;2.13;;
9759;SDS011;4919;48.792;9.202;2022-09-03T08:21:33;2.80;;;2.10;;
9759;SDS011;4919;48.792;9.202;2022-09-03T08:24:00;5.23;;;2.07;;
9759;SDS011;4919;48.792;9.202;2022-09-03T08:26:29;4.13;;;2.07;;
9759;SDS011;4919;48.792;9.202;2022-09-03T08:28:58;4.40;;;2.27;;
9759;SDS011;4919;48.792;9.202;2022-09-03T08:31:26;2.83;;;1.80;;
9759;SDS011;4919;48.792;9.202;2022-09-03T08:33:55;5.60;;;1.93;;
9759;SDS011;4919;48.792;9.202;2022-09-03T08:36:25;2.23;;;1.63;;
9759;SDS011;4919;48.792;9.202;2022-09-03T08:38:57;4.60;;;1.80;;
9759;SDS011;4919;48.792;9.202;2022-09-03T08:44:22;2.77;;;1.80;;
9759;SDS011;4919;48.792;9.202;2022-09-03T08:47:00;2.50;;;1.80;;
9759;SDS011;4919;48.792;9.202;2022-09-03T08:52:35;3.50;;;1.80;;
9759;SDS011;4919;48.792;9.202;2022-09-03T09:06:04;4.20;;;1.93;;
9759;SDS011;4919;48.792;9.202;2022-09-03T09:09:00;3.57;;;1.80;;
9759;SDS011;4919;48.792;9.202;2022-09-03T09:11:56;3.53;;;1.73;;
9759;SDS011;4919;48.792;9.202;2022-09-03T09:17:53;3.10;;;1.77;;
9759;SDS011;4919;48.792;9.202;2022-09-03T09:22:42;5.03;;;2.10;;
9759;SDS011;4919;48.792;9.202;2022-09-03T09:25:17;3.00;;;1.90;;
9759;SDS011;4919;48.792;9.202;2022-09-03T09:27:50;4.93;;;1.83;;
9759;SDS011;4919;48.792;9.202;2022-09-03T09:30:22;5.93;;;1.70;;
9759;SDS011;4919;48.792;9.202;2022-09-03T09:32:49;6.50;;;1.70;;
9759;SDS011;4919;48.792;9.202;2022-09-03T09:35:17;4.13;;;1.60;;
9759;SDS011;4919;48.792;9.202;2022-09-03T09:37:54;6.70;;;1.60;;
9759;SDS011;4919;48.792;9.202;2022-09-03T09:40:33;3.30;;;1.70;;
9759;SDS011;4919;48.792;9.202;2022-09-03T09:43:11;3.17;;;1.87;;
9759;SDS011;4919;48.792;9.202;2022-09-03T09:45:45;2.57;;;1.70;;
9759;SDS011;4919;48.792;9.202;2022-09-03T09:51:09;6.13;;;1.73;;
9759;SDS011;4919;48.792;9.202;2022-09-03T09:53:37;2.17;;;1.70;;
9759;SDS011;4919;48.792;9.202;2022-09-03T09:56:05;3.50;;;1.43;;
9759;SDS011;4919;48.792;9.202;2022-09-03T09:58:33;1.77;;;1.40;;
9759;SDS011;4919;48.792;9.202;2022-09-03T10:01:02;2.83;;;1.70;;
9759;SDS011;4919;48.792;9.202;2022-09-03T10:03:52;4.10;;;1.97;;
9759;SDS011;4919;48.792;9.202;2022-09-03T10:06:25;2.20;;;1.60;;
9759;SDS011;4919;48.792;9.202;2022-09-03T10:09:16;2.53;;;1.80;;
9759;SDS011;4919;48.792;9.202;2022-09-03T10:11:45;3.57;;;1.50;;
9759;SDS011;4919;48.792;9.202;2022-09-03T10:14:33;3.33;;;1.60;;
9759;SDS011;4919;48.792;9.202;2022-09-03T10:17:22;2.57;;;1.90;;
9759;SDS011;4919;48.792;9.202;2022-09-03T10:20:08;2.77;;;1.47;;
9759;SDS011;4919;48.792;9.202;2022-09-03T10:25:39;2.63;;;1.70;;
9759;SDS011;4919;48.792;9.202;2022-09-03T10:28:20;1.97;;;1.60;;
9759;SDS011;4919;48.792;9.202;2022-09-03T10:33:50;5.70;;;1.70;;
9759;SDS011;4919;48.792;9.202;2022-09-03T10:39:22;2.80;;;1.63;;
9759;SDS011;4919;48.792;9.202;2022-09-03T10:47:40;3.30;;;1.73;;
9759;SDS011;4919;48.792;9.202;2022-09-03T10:53:06;2.23;;;1.47;;
9759;SDS011;4919;48.792;9.202;2022-09-03T10:55:49;1.90;;;1.60;;
9759;SDS011;4919;48.792;9.202;2022-09-03T11:01:17;4.53;;;1.60;;
9759;SDS011;4919;48.792;9.202;2022-09-03T11:06:51;3.13;;;1.53;;
9759;SDS011;4919;48.792;9.202;2022-09-03T11:12:00;2.63;;;1.50;;
9759;SDS011;4919;48.792;9.202;2022-09-03T11:14:45;2.10;;;1.60;;
9759;SDS011;4919;48.792;9.202;2022-09-03T11:17:20;2.00;;;1.47;;
9759;SDS011;4919;48.792;9.202;2022-09-03T11:20:10;4.47;;;1.40;;
9759;SDS011;4919;48.792;9.202;2022-09-03T11:22:40;3.03;;;1.67;;
9759;SDS011;4919;48.792;9.202;2022-09-03T11:25:10;3.10;;;1.60;;
9759;SDS011;4919;48.792;9.202;2022-09-03T11:30:08;1.80;;;1.50;;
9759;SDS011;4919;48.792;9.202;2022-09-03T11:32:41;1.60;;;1.50;;
9759;SDS011;4919;48.792;9.202;2022-09-03T11:35:26;2.37;;;1.40;;
9759;SDS011;4919;48.792;9.202;2022-09-03T11:37:58;2.97;;;1.57;;
9759;SDS011;4919;48.792;9.202;2022-09-03T11:40:37;1.83;;;1.60;;
9759;SDS011;4919;48.792;9.202;2022-09-03T11:45:38;6.30;;;1.87;;
9759;SDS011;4919;48.792;9.202;2022-09-03T11:48:18;2.97;;;1.53;;
9759;SDS011;4919;48.792;9.202;2022-09-03T11:51:02;2.97;;;1.73;;
9759;SDS011;4919;48.792;9.202;2022-09-03T11:53:33;3.10;;;1.73;;
9759;SDS011;4919;48.792;9.202;2022-09-03T11:58:32;5.67;;;2.10;;
9759;SDS011;4919;48.792;9.202;2022-09-03T12:01:13;2.83;;;1.90;;
9759;SDS011;4919;48.792;9.202;2022-09-03T12:03:47;2.43;;;1.57;;
9759;SDS011;4919;48.792;9.202;2022-09-03T12:11:56;2.80;;;1.70;;
9759;SDS011;4919;48.792;9.202;2022-09-03T12:14:39;3.40;;;1.70;;
9759;SDS011;4919;48.792;9.202;2022-09-03T12:20:10;3.20;;;1.83;;
9759;SDS011;4919;48.792;9.202;2022-09-03T12:22:40;6.27;;;1.70;;
9759;SDS011;4919;48.792;9.202;2022-09-03T12:25:12;1.93;;;1.60;;
9759;SDS011;4919;48.792;9.202;2022-09-03T12:27:41;1.63;;;1.53;;
9759;SDS011;4919;48.792;9.202;2022-09-03T12:30:14;1.83;;;1.70;;
9759;SDS011;4919;48.792;9.202;2022-09-03T12:32:43;4.00;;;1.80;;
9759;SDS011;4919;48.792;9.202;2022-09-03T12:35:12;1.90;;;1.70;;
9759;SDS011;4919;48.792;9.202;2022-09-03T12:38:02;4.90;;;1.83;;
9759;SDS011;4919;48.792;9.202;2022-09-03T12:40:33;2.20;;;1.70;;
9759;SDS011;4919;48.792;9.202;2022-09-03T12:43:25;3.50;;;2.00;;
9759;SDS011;4919;48.792;9.202;2022-09-03T12:46:13;2.23;;;1.70;;
9759;SDS011;4919;48.792;9.202;2022-09-03T12:48:46;2.07;;;1.60;;
9759;SDS011;4919;48.792;9.202;2022-09-03T12:51:39;2.37;;;1.63;;
9759;SDS011;4919;48.792;9.202;2022-09-03T12:54:22;2.53;;;1.70;;
9759;SDS011;4919;48.792;9.202;2022-09-03T12:56:53;2.83;;;1.70;;
9759;SDS011;4919;48.792;9.202;2022-09-03T12:59:24;3.70;;;1.70;;
9759;SDS011;4919;48.792;9.202;2022-09-03T13:01:54;2.83;;;1.90;;
9759;SDS011;4919;48.792;9.202;2022-09-03T13:04:28;2.80;;;1.73;;
9759;SDS011;4919;48.792;9.202;2022-09-03T13:09:32;2.80;;;1.93;;
9759;SDS011;4919;48.792;9.202;2022-09-03T13:12:01;3.23;;;2.20;;
9759;SDS011;4919;48.792;9.202;2022-09-03T13:14:41;3.67;;;2.13;;
9759;SDS011;4919;48.792;9.202;2022-09-03T13:17:13;2.40;;;2.13;;
9759;SDS011;4919;48.792;9.202;2022-09-03T13:25:45;4.77;;;1.93;;
9759;SDS011;4919;48.792;9.202;2022-09-03T13:28:31;3.63;;;1.97;;
9759;SDS011;4919;48.792;9.202;2022-09-03T13:31:33;4.13;;;2.03;;
9759;SDS011;4919;48.792;9.202;2022-09-03T13:34:05;2.13;;;1.77;;
9759;SDS011;4919;48.792;9.202;2022-09-03T13:36:40;2.10;;;1.70;;
9759;SDS011;4919;48.792;9.202;2022-09-03T13:39:23;4.03;;;1.77;;
9759;SDS011;4919;48.792;9.202;2022-09-03T13:42:15;3.80;;;1.70;;
9759;SDS011;4919;48.792;9.202;2022-09-03T13:44:56;2.93;;;1.70;;
9759;SDS011;4919;48.792;9.202;2022-09-03T13:50:30;3.00;;;2.10;;
9759;SDS011;4919;48.792;9.202;2022-09-03T13:59:19;4.27;;;2.10;;
9759;SDS011;4919;48.792;9.202;2022-09-03T14:02:56;3.43;;;2.30;;
9759;SDS011;4919;48.792;9.202;2022-09-03T14:08:04;4.70;;;2.40;;
9759;SDS011;4919;48.792;9.202;2022-09-03T14:22:10;5.57;;;2.43;;
9759;SDS011;4919;48.792;9.202;2022-09-03T14:25:15;6.43;;;2.67;;
9759;SDS011;4919;48.792;9.202;2022-09-03T14:27:44;3.20;;;2.13;;
9759;SDS011;4919;48.792;9.202;2022-09-03T14:35:44;3.47;;;1.90;;
9759;SDS011;4919;48.792;9.202;2022-09-03T14:41:21;3.57;;;2.70;;
9759;SDS011;4919;48.792;9.202;2022-09-03T14:47:22;3.40;;;2.10;;
9759;SDS011;4919;48.792;9.202;2022-09-03T14:50:09;2.97;;;2.33;;
9759;SDS011;4919;48.792;9.202;2022-09-03T14:55:37;3.40;;;2.20;;
9759;SDS011;4919;48.792;9.202;2022-09-03T14:58:34;4.87;;;2.20;;
9759;SDS011;4919;48.792;9.202;2022-09-03T15:01:10;3.40;;;2.00;;
9759;SDS011;4919;48.792;9.202;2022-09-03T15:06:48;4.37;;;2.90;;
9759;SDS011;4919;48.792;9.202;2022-09-03T15:09:53;4.73;;;3.40;;
9759;SDS011;4919;48.792;9.202;2022-09-03T15:12:32;5.23;;;2.93;;
9759;SDS011;4919;48.792;9.202;2022-09-03T15:15:21;3.63;;;2.23;;
9759;SDS011;4919;48.792;9.202;2022-09-03T15:23:28;3.40;;;2.80;;
9759;SDS011;4919;48.792;9.202;2022-09-03T15:33:57;6.20;;;2.53;;
9759;SDS011;4919;48.792;9.202;2022-09-03T15:36:40;4.90;;;3.13;;
9759;SDS011;4919;48.792;9.202;2022-09-03T15:39:18;4.53;;;3.10;;
9759;SDS011;4919;48.792;9.202;2022-09-03T15:41:50;12.60;;;8.67;;
9759;SDS011;4919;48.792;9.202;2022-09-03T15:44:22;8.23;;;4.17;;
9759;SDS011;4919;48.792;9.202;2022-09-03T15:46:58;4.87;;;3.53;;
9759;SDS011;4919;48.792;9.202;2022-09-03T15:49:42;3.27;;;2.60;;
9759;SDS011;4919;48.792;9.202;2022-09-03T15:52:52;3.47;;;2.53;;
9759;SDS011;4919;48.792;9.202;2022-09-03T15:55:34;4.43;;;3.63;;
9759;SDS011;4919;48.792;9.202;2022-09-03T16:00:58;3.70;;;3.03;;
9759;SDS011;4919;48.792;9.202;2022-09-03T16:06:06;3.67;;;3.17;;
9759;SDS011;4919;48.792;9.202;2022-09-03T16:08:56;2.93;;;2.63;;
9759;SDS011;4919;48.792;9.202;2022-09-03T16:11:35;3.67;;;3.13;;
9759;SDS011;4919;48.792;9.202;2022-09-03T16:19:40;5.00;;;3.60;;
9759;SDS011;4919;48.792;9.202;2022-09-03T16:22:31;4.87;;;2.90;;
9759;SDS011;4919;48.792;9.202;2022-09-03T16:25:15;6.40;;;4.07;;
9759;SDS011;4919;48.792;9.202;2022-09-03T16:38:48;3.50;;;2.40;;
9759;SDS011;4919;48.792;9.202;2022-09-03T16:50:31;4.67;;;2.40;;
9759;SDS011;4919;48.792;9.202;2022-09-03T16:53:15;2.80;;;2.40;;
9759;SDS011;4919;48.792;9.202;2022-09-03T16:56:08;3.47;;;2.27;;
9759;SDS011;4919;48.792;9.202;2022-09-03T17:04:25;3.23;;;2.60;;
9759;SDS011;4919;48.792;9.202;2022-09-03T17:10:12;4.53;;;2.57;;
9759;SDS011;4919;48.792;9.202;2022-09-03T17:16:02;7.97;;;2.93;;
9759;SDS011;4919;48.792;9.202;2022-09-03T17:46:20;2.87;;;2.47;;
9759;SDS011;4919;48.792;9.202;2022-09-03T17:48:55;3.70;;;2.33;;
9759;SDS011;4919;48.792;9.202;2022-09-03T17:54:33;5.17;;;2.27;;
9759;SDS011;4919;48.792;9.202;2022-09-03T17:57:17;4.40;;;2.60;;
9759;SDS011;4919;48.792;9.202;2022-09-03T18:00:03;4.33;;;2.33;;
9759;SDS011;4919;48.792;9.202;2022-09-03T18:09:02;4.33;;;2.43;;
9759;SDS011;4919;48.792;9.202;2022-09-03T18:14:21;4.63;;;2.50;;
9759;SDS011;4919;48.792;9.202;2022-09-03T18:17:01;5.07;;;2.90;;
9759;SDS011;4919;48.792;9.202;2022-09-03T18:19:41;6.27;;;3.00;;
9759;SDS011;4919;48.792;9.202;2022-09-03T18:22:44;3.77;;;2.83;;
9759;SDS011;4919;48.792;9.202;2022-09-03T18:25:38;5.73;;;2.50;;
9759;SDS011;4919;48.792;9.202;2022-09-03T18:28:37;5.37;;;3.07;;
9759;SDS011;4919;48.792;9.202;2022-09-03T18:31:28;6.40;;;2.40;;
9759;SDS011;4919;48.792;9.202;2022-09-03T18:34:13;5.63;;;2.83;;
9759;SDS011;4919;48.792;9.202;2022-09-03T18:37:00;3.60;;;2.40;;
9759;SDS011;4919;48.792;9.202;2022-09-03T18:39:46;3.10;;;2.50;;
9759;SDS011;4919;48.792;9.202;2022-09-03T18:48:56;3.47;;;2.60;;
9759;SDS011;4919;48.792;9.202;2022-09-03T19:01:25;4.90;;;2.77;;
9759;SDS011;4919;48.792;9.202;2022-09-03T19:13:44;3.90;;;2.93;;
9759;SDS011;4919;48.792;9.202;2022-09-03T19:22:55;7.07;;;2.80;;
9759;SDS011;4919;48.792;9.202;2022-09-03T19:25:40;4.53;;;2.60;;
9759;SDS011;4919;48.792;9.202;2022-09-03T19:28:29;3.73;;;2.87;;
9759;SDS011;4919;48.792;9.202;2022-09-03T19:49:35;3.53;;;3.10;;
9759;SDS011;4919;48.792;9.202;2022-09-03T19:55:46;3.67;;;2.90;;
9759;SDS011;4919;48.792;9.202;2022-09-03T19:58:37;4.30;;;2.77;;
9759;SDS011;4919;48.792;9.202;2022-09-03T20:01:32;3.37;;;2.87;;
9759;SDS011;4919;48.792;9.202;2022-09-03T20:04:22;3.03;;;2.50;;
9759;SDS011;4919;48.792;9.202;2022-09-03T20:07:15;3.70;;;2.30;;
9759;SDS011;4919;48.792;9.202;2022-09-03T20:10:03;4.90;;;2.80;;
9759;SDS011;4919;48.792;9.202;2022-09-03T20:18:37;5.60;;;2.60;;
9759;SDS011;4919;48.792;9.202;2022-09-03T20:23:54;5.07;;;2.70;;
9759;SDS011;4919;48.792;9.202;2022-09-03T20:26:55;3.60;;;2.50;;
9759;SDS011;4919;48.792;9.202;2022-09-03T20:38:02;5.17;;;2.70;;
9759;SDS011;4919;48.792;9.202;2022-09-03T20:51:32;3.47;;;2.70;;
9759;SDS011;4919;48.792;9.202;2022-09-03T20:54:06;3.27;;;2.97;;
9759;SDS011;4919;48.792;9.202;2022-09-03T21:24:39;5.30;;;2.37;;
9759;SDS011;4919;48.792;9.202;2022-09-03T21:27:12;4.03;;;2.43;;
9759;SDS011;4919;48.792;9.202;2022-09-03T21:37:47;5.40;;;2.60;;
9759;SDS011;4919;48.792;9.202;2022-09-03T21:40:27;4.10;;;2.40;;
9759;SDS011;4919;48.792;9.202;2022-09-03T21:45:51;2.90;;;2.17;;
9759;SDS011;4919;48.792;9.202;2022-09-03T21:51:13;4.30;;;2.40;;
9759;SDS011;4919;48.792;9.202;2022-09-03T21:53:58;4.27;;;2.33;;
9759;SDS011;4919;48.792;9.202;2022-09-03T22:04:17;4.50;;;2.40;;
9759;SDS011;4919;48.792;9.202;2022-09-03T22:09:45;3.23;;;2.30;;
9759;SDS011;4919;48.792;9.202;2022-09-03T22:15:01;3.77;;;2.40;;
9759;SDS011;4919;48.792;9.202;2022-09-03T22:20:09;9.07;;;2.30;;
9759;SDS011;4919;48.792;9.202;2022-09-03T22:28:15;5.10;;;2.40;;
9759;SDS011;4919;48.792;9.202;2022-09-03T22:31:00;5.00;;;2.27;;
9759;SDS011;4919;48.792;9.202;2022-09-03T22:36:36;3.40;;;2.40;;
9759;SDS011;4919;48.792;9.202;2022-09-03T22:39:21;4.90;;;2.30;;
9759;SDS011;4919;48.792;9.202;2022-09-03T22:42:22;5.10;;;2.27;;
9759;SDS011;4919;48.792;9.202;2022-09-03T22:53:25;3.93;;;2.33;;
9759;SDS011;4919;48.792;9.202;2022-09-03T22:56:11;4.60;;;2.87;;
9759;SDS011;4919;48.792;9.202;2022-09-03T22:58:46;3.97;;;2.33;;
9759;SDS011;4919;48.792;9.202;2022-09-03T23:04:13;3.97;;;2.37;;
9759;SDS011;4919;48.792;9.202;2022-09-03T23:06:56;4.03;;;2.30;;
9759;SDS011;4919;48.792;9.202;2022-09-03T23:09:28;4.10;;;2.37;;
9759;SDS011;4919;48.792;9.202;2022-09-03T23:12:02;3.77;;;2.47;;